sensor_id;sensor_type;location;lat;lon;timestamp;P1;durP1;ratioP1;P2;durP2;ratioP2
64052;SDS011;50299;49.524;8.536;2023-11-21T00:01:25;2.40;;;1.35;;
64052;SDS011;50299;49.524;8.536;2023-11-21T00:03:51;1.80;;;1.17;;
64052;SDS011;50299;49.524;8.536;2023-11-21T00:08:49;1.30;;;1.13;;
64052;SDS011;50299;49.524;8.536;2023-11-21T00:11:16;1.30;;;1.10;;
64052;SDS011;50299;49.524;8.536;2023-11-21T00:13:42;3.88;;;1.30;;
64052;SDS011;50299;49.524;8.536;2023-11-21T00:16:10;1.08;;;0.90;;
64052;SDS011;50299;49.524;8.536;2023-11-21T00:18:37;2.35;;;1.15;;
64052;SDS011;50299;49.524;8.536;2023-11-21T00:21:03;2.35;;;0.98;;
64052;SDS011;50299;49.524;8.536;2023-11-21T00:23:30;1.88;;;1.42;;
64052;SDS011;50299;49.524;8.536;2023-11-21T00:25:56;1.20;;;1.10;;
64052;SDS011;50299;49.524;8.536;2023-11-21T00:28:23;2.85;;;1.08;;
64052;SDS011;50299;49.524;8.536;2023-11-21T00:30:51;1.25;;;1.10;;
64052;SDS011;50299;49.524;8.536;2023-11-21T00:33:17;2.20;;;1.10;;
64052;SDS011;50299;49.524;8.536;2023-11-21T00:35:44;2.72;;;1.60;;
64052;SDS011;50299;49.524;8.536;2023-11-21T00:38:10;1.38;;;0.88;;
64052;SDS011;50299;49.524;8.536;2023-11-21T00:40:36;1.25;;;0.88;;
64052;SDS011;50299;49.524;8.536;2023-11-21T00:43:04;1.50;;;1.23;;
64052;SDS011;50299;49.524;8.536;2023-11-21T00:45:33;1.30;;;1.13;;
64052;SDS011;50299;49.524;8.536;2023-11-21T00:48:01;2.08;;;1.10;;
64052;SDS011;50299;49.524;8.536;2023-11-21T00:50:31;2.97;;;1.25;;
64052;SDS011;50299;49.524;8.536;2023-11-21T00:52:57;1.70;;;1.20;;
64052;SDS011;50299;49.524;8.536;2023-11-21T00:55:24;1.50;;;1.40;;
64052;SDS011;50299;49.524;8.536;2023-11-21T00:57:52;1.55;;;0.90;;
64052;SDS011;50299;49.524;8.536;2023-11-21T01:00:22;1.02;;;0.82;;
64052;SDS011;50299;49.524;8.536;2023-11-21T01:02:49;2.88;;;1.45;;
64052;SDS011;50299;49.524;8.536;2023-11-21T01:05:16;1.27;;;1.05;;
64052;SDS011;50299;49.524;8.536;2023-11-21T01:07:42;1.27;;;1.08;;
64052;SDS011;50299;49.524;8.536;2023-11-21T01:10:09;0.80;;;0.80;;
64052;SDS011;50299;49.524;8.536;2023-11-21T01:12:36;1.05;;;0.95;;
64052;SDS011;50299;49.524;8.536;2023-11-21T01:15:04;1.60;;;0.93;;
64052;SDS011;50299;49.524;8.536;2023-11-21T01:17:35;0.85;;;0.85;;
64052;SDS011;50299;49.524;8.536;2023-11-21T01:20:03;1.05;;;1.00;;
64052;SDS011;50299;49.524;8.536;2023-11-21T01:22:39;1.02;;;0.98;;
64052;SDS011;50299;49.524;8.536;2023-11-21T01:25:07;1.52;;;1.00;;
64052;SDS011;50299;49.524;8.536;2023-11-21T01:27:36;2.22;;;1.05;;
64052;SDS011;50299;49.524;8.536;2023-11-21T01:30:03;5.28;;;1.67;;
64052;SDS011;50299;49.524;8.536;2023-11-21T01:32:30;1.83;;;1.20;;
64052;SDS011;50299;49.524;8.536;2023-11-21T01:34:57;2.08;;;1.40;;
64052;SDS011;50299;49.524;8.536;2023-11-21T01:37:23;1.80;;;1.40;;
64052;SDS011;50299;49.524;8.536;2023-11-21T01:39:54;2.42;;;1.27;;
64052;SDS011;50299;49.524;8.536;2023-11-21T01:42:23;1.33;;;1.10;;
64052;SDS011;50299;49.524;8.536;2023-11-21T01:44:52;2.83;;;1.02;;
64052;SDS011;50299;49.524;8.536;2023-11-21T01:47:20;2.42;;;1.08;;
64052;SDS011;50299;49.524;8.536;2023-11-21T01:49:47;2.35;;;1.05;;
64052;SDS011;50299;49.524;8.536;2023-11-21T01:52:14;1.42;;;1.33;;
64052;SDS011;50299;49.524;8.536;2023-11-21T01:54:41;2.20;;;1.50;;
64052;SDS011;50299;49.524;8.536;2023-11-21T01:57:11;1.92;;;1.15;;
64052;SDS011;50299;49.524;8.536;2023-11-21T01:59:38;1.08;;;1.00;;
64052;SDS011;50299;49.524;8.536;2023-11-21T02:02:05;1.88;;;1.30;;
64052;SDS011;50299;49.524;8.536;2023-11-21T02:04:32;1.45;;;1.17;;
64052;SDS011;50299;49.524;8.536;2023-11-21T02:07:00;2.30;;;1.25;;
64052;SDS011;50299;49.524;8.536;2023-11-21T02:09:27;1.02;;;0.93;;
64052;SDS011;50299;49.524;8.536;2023-11-21T02:11:54;1.73;;;1.52;;
64052;SDS011;50299;49.524;8.536;2023-11-21T02:16:54;1.30;;;1.20;;
64052;SDS011;50299;49.524;8.536;2023-11-21T02:19:23;1.92;;;1.30;;
64052;SDS011;50299;49.524;8.536;2023-11-21T02:21:52;1.95;;;1.35;;
64052;SDS011;50299;49.524;8.536;2023-11-21T02:24:19;2.45;;;1.00;;
64052;SDS011;50299;49.524;8.536;2023-11-21T02:26:46;1.52;;;1.15;;
64052;SDS011;50299;49.524;8.536;2023-11-21T02:29:14;2.58;;;1.00;;
64052;SDS011;50299;49.524;8.536;2023-11-21T02:31:43;1.08;;;0.98;;
64052;SDS011;50299;49.524;8.536;2023-11-21T02:34:14;1.55;;;0.80;;
64052;SDS011;50299;49.524;8.536;2023-11-21T02:36:42;1.20;;;1.10;;
64052;SDS011;50299;49.524;8.536;2023-11-21T02:39:09;1.25;;;1.00;;
64052;SDS011;50299;49.524;8.536;2023-11-21T02:41:38;1.25;;;1.20;;
64052;SDS011;50299;49.524;8.536;2023-11-21T02:44:05;0.75;;;0.75;;
64052;SDS011;50299;49.524;8.536;2023-11-21T02:46:34;1.20;;;0.98;;
64052;SDS011;50299;49.524;8.536;2023-11-21T02:49:04;0.88;;;0.88;;
64052;SDS011;50299;49.524;8.536;2023-11-21T02:51:35;0.93;;;0.85;;
64052;SDS011;50299;49.524;8.536;2023-11-21T02:56:31;1.58;;;1.20;;
64052;SDS011;50299;49.524;8.536;2023-11-21T02:58:59;3.22;;;1.27;;
64052;SDS011;50299;49.524;8.536;2023-11-21T03:01:26;2.75;;;1.00;;
64052;SDS011;50299;49.524;8.536;2023-11-21T03:03:56;2.10;;;0.85;;
64052;SDS011;50299;49.524;8.536;2023-11-21T03:06:23;1.20;;;1.10;;
64052;SDS011;50299;49.524;8.536;2023-11-21T03:08:50;3.42;;;1.05;;
64052;SDS011;50299;49.524;8.536;2023-11-21T03:11:17;0.82;;;0.82;;
64052;SDS011;50299;49.524;8.536;2023-11-21T03:13:43;1.13;;;0.85;;
64052;SDS011;50299;49.524;8.536;2023-11-21T03:16:10;1.60;;;0.80;;
64052;SDS011;50299;49.524;8.536;2023-11-21T03:18:37;0.95;;;0.88;;
64052;SDS011;50299;49.524;8.536;2023-11-21T03:21:04;1.08;;;0.93;;
64052;SDS011;50299;49.524;8.536;2023-11-21T03:23:32;1.75;;;1.00;;
64052;SDS011;50299;49.524;8.536;2023-11-21T03:25:58;0.90;;;0.85;;
64052;SDS011;50299;49.524;8.536;2023-11-21T03:28:26;1.33;;;1.17;;
64052;SDS011;50299;49.524;8.536;2023-11-21T03:30:57;2.67;;;0.80;;
64052;SDS011;50299;49.524;8.536;2023-11-21T03:33:32;1.85;;;1.25;;
64052;SDS011;50299;49.524;8.536;2023-11-21T03:35:58;1.35;;;1.20;;
64052;SDS011;50299;49.524;8.536;2023-11-21T03:38:25;1.77;;;1.00;;
64052;SDS011;50299;49.524;8.536;2023-11-21T03:40:51;0.85;;;0.85;;
64052;SDS011;50299;49.524;8.536;2023-11-21T03:43:17;0.73;;;0.73;;
64052;SDS011;50299;49.524;8.536;2023-11-21T03:45:44;1.08;;;0.98;;
64052;SDS011;50299;49.524;8.536;2023-11-21T03:48:11;0.98;;;0.82;;
64052;SDS011;50299;49.524;8.536;2023-11-21T03:50:38;2.03;;;0.82;;
64052;SDS011;50299;49.524;8.536;2023-11-21T03:53:05;2.17;;;1.00;;
64052;SDS011;50299;49.524;8.536;2023-11-21T03:55:31;1.80;;;0.70;;
64052;SDS011;50299;49.524;8.536;2023-11-21T03:57:58;2.08;;;0.95;;
64052;SDS011;50299;49.524;8.536;2023-11-21T04:00:27;1.45;;;0.95;;
64052;SDS011;50299;49.524;8.536;2023-11-21T04:02:56;1.50;;;1.00;;
64052;SDS011;50299;49.524;8.536;2023-11-21T04:05:22;1.52;;;1.42;;
64052;SDS011;50299;49.524;8.536;2023-11-21T04:07:49;1.27;;;1.17;;
64052;SDS011;50299;49.524;8.536;2023-11-21T04:10:19;1.00;;;0.90;;
64052;SDS011;50299;49.524;8.536;2023-11-21T04:12:45;2.15;;;1.02;;
64052;SDS011;50299;49.524;8.536;2023-11-21T04:15:12;1.08;;;1.08;;
64052;SDS011;50299;49.524;8.536;2023-11-21T04:17:40;0.82;;;0.82;;
64052;SDS011;50299;49.524;8.536;2023-11-21T04:20:08;1.30;;;1.20;;
64052;SDS011;50299;49.524;8.536;2023-11-21T04:22:36;2.08;;;1.92;;
64052;SDS011;50299;49.524;8.536;2023-11-21T04:25:10;1.05;;;0.95;;
64052;SDS011;50299;49.524;8.536;2023-11-21T04:27:41;3.22;;;1.30;;
64052;SDS011;50299;49.524;8.536;2023-11-21T04:30:10;1.55;;;1.00;;
64052;SDS011;50299;49.524;8.536;2023-11-21T04:32:37;1.25;;;0.98;;
64052;SDS011;50299;49.524;8.536;2023-11-21T04:35:05;0.80;;;0.80;;
64052;SDS011;50299;49.524;8.536;2023-11-21T04:37:32;3.00;;;1.20;;
64052;SDS011;50299;49.524;8.536;2023-11-21T04:39:58;1.67;;;1.38;;
64052;SDS011;50299;49.524;8.536;2023-11-21T04:42:25;1.20;;;1.10;;
64052;SDS011;50299;49.524;8.536;2023-11-21T04:44:54;1.95;;;1.08;;
64052;SDS011;50299;49.524;8.536;2023-11-21T04:47:21;1.23;;;0.95;;
64052;SDS011;50299;49.524;8.536;2023-11-21T04:49:48;1.30;;;1.20;;
64052;SDS011;50299;49.524;8.536;2023-11-21T04:52:14;1.52;;;1.00;;
64052;SDS011;50299;49.524;8.536;2023-11-21T04:54:41;1.88;;;0.88;;
64052;SDS011;50299;49.524;8.536;2023-11-21T04:57:07;0.73;;;0.73;;
64052;SDS011;50299;49.524;8.536;2023-11-21T04:59:34;1.58;;;1.17;;
64052;SDS011;50299;49.524;8.536;2023-11-21T05:02:01;1.20;;;0.80;;
64052;SDS011;50299;49.524;8.536;2023-11-21T05:04:28;3.45;;;0.95;;
64052;SDS011;50299;49.524;8.536;2023-11-21T05:06:54;0.70;;;0.70;;
64052;SDS011;50299;49.524;8.536;2023-11-21T05:09:21;1.95;;;1.13;;
64052;SDS011;50299;49.524;8.536;2023-11-21T05:11:48;0.95;;;0.75;;
64052;SDS011;50299;49.524;8.536;2023-11-21T05:14:14;0.80;;;0.80;;
64052;SDS011;50299;49.524;8.536;2023-11-21T05:16:41;0.80;;;0.80;;
64052;SDS011;50299;49.524;8.536;2023-11-21T05:19:11;2.15;;;1.13;;
64052;SDS011;50299;49.524;8.536;2023-11-21T05:21:39;1.20;;;1.08;;
64052;SDS011;50299;49.524;8.536;2023-11-21T05:24:06;1.08;;;0.98;;
64052;SDS011;50299;49.524;8.536;2023-11-21T05:26:32;1.45;;;1.05;;
64052;SDS011;50299;49.524;8.536;2023-11-21T05:28:59;2.03;;;1.40;;
64052;SDS011;50299;49.524;8.536;2023-11-21T05:31:25;0.90;;;0.80;;
64052;SDS011;50299;49.524;8.536;2023-11-21T05:33:53;1.73;;;1.63;;
64052;SDS011;50299;49.524;8.536;2023-11-21T05:36:19;1.83;;;1.48;;
64052;SDS011;50299;49.524;8.536;2023-11-21T05:38:46;1.85;;;1.20;;
64052;SDS011;50299;49.524;8.536;2023-11-21T05:41:15;1.35;;;1.25;;
64052;SDS011;50299;49.524;8.536;2023-11-21T05:43:41;1.25;;;1.10;;
64052;SDS011;50299;49.524;8.536;2023-11-21T05:46:08;1.38;;;1.27;;
64052;SDS011;50299;49.524;8.536;2023-11-21T05:48:35;2.38;;;1.30;;
64052;SDS011;50299;49.524;8.536;2023-11-21T05:51:06;1.58;;;1.48;;
64052;SDS011;50299;49.524;8.536;2023-11-21T05:53:33;1.65;;;1.55;;
64052;SDS011;50299;49.524;8.536;2023-11-21T05:56:00;2.33;;;1.60;;
64052;SDS011;50299;49.524;8.536;2023-11-21T05:58:26;1.35;;;1.27;;
64052;SDS011;50299;49.524;8.536;2023-11-21T06:00:53;3.75;;;1.52;;
64052;SDS011;50299;49.524;8.536;2023-11-21T06:03:19;2.20;;;1.35;;
64052;SDS011;50299;49.524;8.536;2023-11-21T06:05:47;1.40;;;1.30;;
64052;SDS011;50299;49.524;8.536;2023-11-21T06:08:14;1.70;;;1.60;;
64052;SDS011;50299;49.524;8.536;2023-11-21T06:10:43;1.75;;;1.65;;
64052;SDS011;50299;49.524;8.536;2023-11-21T06:13:10;2.03;;;1.88;;
64052;SDS011;50299;49.524;8.536;2023-11-21T06:15:37;2.25;;;1.77;;
64052;SDS011;50299;49.524;8.536;2023-11-21T06:18:03;2.20;;;1.70;;
64052;SDS011;50299;49.524;8.536;2023-11-21T06:20:31;2.00;;;1.73;;
64052;SDS011;50299;49.524;8.536;2023-11-21T06:22:58;2.20;;;1.90;;
64052;SDS011;50299;49.524;8.536;2023-11-21T06:25:24;3.00;;;2.25;;
64052;SDS011;50299;49.524;8.536;2023-11-21T06:30:52;3.30;;;2.25;;
64052;SDS011;50299;49.524;8.536;2023-11-21T06:33:19;3.15;;;2.00;;
64052;SDS011;50299;49.524;8.536;2023-11-21T06:35:48;3.67;;;2.55;;
64052;SDS011;50299;49.524;8.536;2023-11-21T06:38:14;2.65;;;2.38;;
64052;SDS011;50299;49.524;8.536;2023-11-21T06:40:43;3.13;;;2.05;;
64052;SDS011;50299;49.524;8.536;2023-11-21T06:43:11;3.95;;;3.20;;
64052;SDS011;50299;49.524;8.536;2023-11-21T06:45:38;3.78;;;3.13;;
64052;SDS011;50299;49.524;8.536;2023-11-21T06:48:07;3.17;;;2.60;;
64052;SDS011;50299;49.524;8.536;2023-11-21T06:50:33;2.80;;;2.50;;
64052;SDS011;50299;49.524;8.536;2023-11-21T06:53:00;4.10;;;2.65;;
64052;SDS011;50299;49.524;8.536;2023-11-21T06:55:29;3.65;;;2.42;;
64052;SDS011;50299;49.524;8.536;2023-11-21T06:57:55;4.43;;;2.85;;
64052;SDS011;50299;49.524;8.536;2023-11-21T07:00:22;2.90;;;2.42;;
64052;SDS011;50299;49.524;8.536;2023-11-21T07:02:48;3.20;;;2.53;;
64052;SDS011;50299;49.524;8.536;2023-11-21T07:05:15;4.75;;;3.35;;
64052;SDS011;50299;49.524;8.536;2023-11-21T07:07:50;5.38;;;3.67;;
64052;SDS011;50299;49.524;8.536;2023-11-21T07:10:20;4.57;;;3.30;;
64052;SDS011;50299;49.524;8.536;2023-11-21T07:12:49;4.60;;;3.15;;
64052;SDS011;50299;49.524;8.536;2023-11-21T07:15:17;4.63;;;3.42;;
64052;SDS011;50299;49.524;8.536;2023-11-21T07:17:46;4.05;;;2.88;;
64052;SDS011;50299;49.524;8.536;2023-11-21T07:20:14;4.88;;;3.10;;
64052;SDS011;50299;49.524;8.536;2023-11-21T07:22:43;5.80;;;4.32;;
64052;SDS011;50299;49.524;8.536;2023-11-21T07:25:09;3.83;;;3.20;;
64052;SDS011;50299;49.524;8.536;2023-11-21T07:27:36;3.63;;;2.60;;
64052;SDS011;50299;49.524;8.536;2023-11-21T07:30:03;3.88;;;2.97;;
64052;SDS011;50299;49.524;8.536;2023-11-21T07:32:36;3.90;;;3.53;;
64052;SDS011;50299;49.524;8.536;2023-11-21T07:35:05;3.72;;;2.65;;
64052;SDS011;50299;49.524;8.536;2023-11-21T07:37:34;5.68;;;4.57;;
64052;SDS011;50299;49.524;8.536;2023-11-21T07:40:03;2.95;;;2.17;;
64052;SDS011;50299;49.524;8.536;2023-11-21T07:42:37;4.18;;;2.65;;
64052;SDS011;50299;49.524;8.536;2023-11-21T07:45:05;3.20;;;2.50;;
64052;SDS011;50299;49.524;8.536;2023-11-21T07:47:33;3.38;;;2.38;;
64052;SDS011;50299;49.524;8.536;2023-11-21T07:50:02;1.95;;;1.75;;
64052;SDS011;50299;49.524;8.536;2023-11-21T07:52:32;3.90;;;2.25;;
64052;SDS011;50299;49.524;8.536;2023-11-21T07:54:58;2.70;;;2.50;;
64052;SDS011;50299;49.524;8.536;2023-11-21T07:57:25;1.83;;;1.58;;
64052;SDS011;50299;49.524;8.536;2023-11-21T07:59:52;2.38;;;1.88;;
64052;SDS011;50299;49.524;8.536;2023-11-21T08:02:20;4.43;;;3.45;;
64052;SDS011;50299;49.524;8.536;2023-11-21T08:04:46;3.30;;;2.40;;
64052;SDS011;50299;49.524;8.536;2023-11-21T08:07:16;2.60;;;2.40;;
64052;SDS011;50299;49.524;8.536;2023-11-21T08:09:43;2.42;;;2.22;;
64052;SDS011;50299;49.524;8.536;2023-11-21T08:12:10;3.80;;;2.50;;
64052;SDS011;50299;49.524;8.536;2023-11-21T08:14:37;14.95;;;6.13;;
64052;SDS011;50299;49.524;8.536;2023-11-21T08:17:05;3.28;;;2.38;;
64052;SDS011;50299;49.524;8.536;2023-11-21T08:19:33;3.17;;;2.42;;
64052;SDS011;50299;49.524;8.536;2023-11-21T08:22:05;1.77;;;1.52;;
64052;SDS011;50299;49.524;8.536;2023-11-21T08:24:35;2.10;;;1.90;;
64052;SDS011;50299;49.524;8.536;2023-11-21T08:27:02;2.92;;;2.42;;
64052;SDS011;50299;49.524;8.536;2023-11-21T08:29:30;1.42;;;1.33;;
64052;SDS011;50299;49.524;8.536;2023-11-21T08:32:05;2.17;;;1.90;;
64052;SDS011;50299;49.524;8.536;2023-11-21T08:34:37;2.35;;;1.75;;
64052;SDS011;50299;49.524;8.536;2023-11-21T08:37:04;1.45;;;1.35;;
64052;SDS011;50299;49.524;8.536;2023-11-21T08:39:33;2.70;;;2.28;;
64052;SDS011;50299;49.524;8.536;2023-11-21T08:42:00;1.80;;;1.45;;
64052;SDS011;50299;49.524;8.536;2023-11-21T08:44:35;5.85;;;4.07;;
64052;SDS011;50299;49.524;8.536;2023-11-21T08:47:01;6.60;;;2.38;;
64052;SDS011;50299;49.524;8.536;2023-11-21T08:49:40;1.38;;;1.15;;
64052;SDS011;50299;49.524;8.536;2023-11-21T08:52:06;2.95;;;2.65;;
64052;SDS011;50299;49.524;8.536;2023-11-21T08:54:37;1.08;;;0.90;;
64052;SDS011;50299;49.524;8.536;2023-11-21T08:57:07;0.80;;;0.80;;
64052;SDS011;50299;49.524;8.536;2023-11-21T08:59:43;0.80;;;0.80;;
64052;SDS011;50299;49.524;8.536;2023-11-21T09:02:11;0.77;;;0.77;;
64052;SDS011;50299;49.524;8.536;2023-11-21T09:04:44;0.98;;;0.90;;
64052;SDS011;50299;49.524;8.536;2023-11-21T09:07:14;1.17;;;0.70;;
64052;SDS011;50299;49.524;8.536;2023-11-21T09:09:43;0.52;;;0.52;;
64052;SDS011;50299;49.524;8.536;2023-11-21T09:12:10;0.60;;;0.60;;
64052;SDS011;50299;49.524;8.536;2023-11-21T09:14:39;0.65;;;0.65;;
64052;SDS011;50299;49.524;8.536;2023-11-21T09:17:09;0.70;;;0.70;;
64052;SDS011;50299;49.524;8.536;2023-11-21T09:19:38;0.85;;;0.85;;
64052;SDS011;50299;49.524;8.536;2023-11-21T09:22:06;1.40;;;0.90;;
64052;SDS011;50299;49.524;8.536;2023-11-21T09:24:37;0.95;;;0.90;;
64052;SDS011;50299;49.524;8.536;2023-11-21T09:27:11;1.00;;;1.00;;
64052;SDS011;50299;49.524;8.536;2023-11-21T09:29:43;0.88;;;0.88;;
64052;SDS011;50299;49.524;8.536;2023-11-21T09:32:16;1.25;;;1.00;;
64052;SDS011;50299;49.524;8.536;2023-11-21T09:34:46;1.13;;;1.02;;
64052;SDS011;50299;49.524;8.536;2023-11-21T09:37:12;0.95;;;0.95;;
64052;SDS011;50299;49.524;8.536;2023-11-21T09:39:44;1.10;;;1.10;;
64052;SDS011;50299;49.524;8.536;2023-11-21T09:45:15;1.25;;;1.15;;
64052;SDS011;50299;49.524;8.536;2023-11-21T09:47:50;1.10;;;1.00;;
64052;SDS011;50299;49.524;8.536;2023-11-21T09:50:22;2.03;;;1.70;;
64052;SDS011;50299;49.524;8.536;2023-11-21T09:52:57;2.22;;;2.03;;
64052;SDS011;50299;49.524;8.536;2023-11-21T09:55:27;2.80;;;1.95;;
64052;SDS011;50299;49.524;8.536;2023-11-21T10:00:34;1.77;;;1.67;;
64052;SDS011;50299;49.524;8.536;2023-11-21T10:03:04;2.20;;;1.83;;
64052;SDS011;50299;49.524;8.536;2023-11-21T10:05:30;2.30;;;2.10;;
64052;SDS011;50299;49.524;8.536;2023-11-21T10:08:00;3.53;;;2.13;;
64052;SDS011;50299;49.524;8.536;2023-11-21T10:10:27;2.40;;;2.20;;
64052;SDS011;50299;49.524;8.536;2023-11-21T10:13:02;3.15;;;2.28;;
64052;SDS011;50299;49.524;8.536;2023-11-21T10:15:38;3.17;;;2.47;;
64052;SDS011;50299;49.524;8.536;2023-11-21T10:18:10;4.18;;;2.28;;
64052;SDS011;50299;49.524;8.536;2023-11-21T10:20:38;2.92;;;2.53;;
64052;SDS011;50299;49.524;8.536;2023-11-21T10:23:06;4.35;;;3.25;;
64052;SDS011;50299;49.524;8.536;2023-11-21T10:25:37;4.20;;;2.80;;
64052;SDS011;50299;49.524;8.536;2023-11-21T10:28:04;4.03;;;2.70;;
64052;SDS011;50299;49.524;8.536;2023-11-21T10:30:37;3.47;;;2.47;;
64052;SDS011;50299;49.524;8.536;2023-11-21T10:33:04;4.32;;;3.00;;
64052;SDS011;50299;49.524;8.536;2023-11-21T10:35:45;3.63;;;3.00;;
64052;SDS011;50299;49.524;8.536;2023-11-21T10:38:19;3.70;;;2.88;;
64052;SDS011;50299;49.524;8.536;2023-11-21T10:40:52;6.88;;;3.05;;
64052;SDS011;50299;49.524;8.536;2023-11-21T10:43:24;4.13;;;2.88;;
64052;SDS011;50299;49.524;8.536;2023-11-21T10:45:51;3.90;;;2.40;;
64052;SDS011;50299;49.524;8.536;2023-11-21T10:48:21;4.25;;;2.97;;
64052;SDS011;50299;49.524;8.536;2023-11-21T10:50:49;3.40;;;2.78;;
64052;SDS011;50299;49.524;8.536;2023-11-21T10:53:16;3.10;;;2.33;;
64052;SDS011;50299;49.524;8.536;2023-11-21T10:55:42;3.78;;;2.42;;
64052;SDS011;50299;49.524;8.536;2023-11-21T11:00:40;3.17;;;2.88;;
64052;SDS011;50299;49.524;8.536;2023-11-21T11:03:07;3.17;;;2.38;;
64052;SDS011;50299;49.524;8.536;2023-11-21T11:05:43;3.72;;;2.85;;
64052;SDS011;50299;49.524;8.536;2023-11-21T11:08:19;6.78;;;3.85;;
64052;SDS011;50299;49.524;8.536;2023-11-21T11:10:52;3.55;;;2.83;;
64052;SDS011;50299;49.524;8.536;2023-11-21T11:13:19;3.78;;;2.88;;
64052;SDS011;50299;49.524;8.536;2023-11-21T11:15:48;3.22;;;2.53;;
64052;SDS011;50299;49.524;8.536;2023-11-21T11:18:15;2.80;;;2.20;;
64052;SDS011;50299;49.524;8.536;2023-11-21T11:20:42;2.88;;;2.25;;
64052;SDS011;50299;49.524;8.536;2023-11-21T11:26:30;3.00;;;2.30;;
64052;SDS011;50299;49.524;8.536;2023-11-21T11:34:46;3.22;;;2.40;;
64052;SDS011;50299;49.524;8.536;2023-11-21T11:37:21;3.30;;;2.10;;
64052;SDS011;50299;49.524;8.536;2023-11-21T11:39:51;3.90;;;2.58;;
64052;SDS011;50299;49.524;8.536;2023-11-21T11:42:18;2.30;;;2.10;;
64052;SDS011;50299;49.524;8.536;2023-11-21T11:44:49;4.38;;;2.30;;
64052;SDS011;50299;49.524;8.536;2023-11-21T11:47:27;3.38;;;2.03;;
64052;SDS011;50299;49.524;8.536;2023-11-21T11:50:04;2.72;;;1.85;;
64052;SDS011;50299;49.524;8.536;2023-11-21T11:52:49;3.90;;;2.22;;
64052;SDS011;50299;49.524;8.536;2023-11-21T11:55:39;4.65;;;2.00;;
64052;SDS011;50299;49.524;8.536;2023-11-21T11:58:09;2.97;;;1.73;;
64052;SDS011;50299;49.524;8.536;2023-11-21T12:00:43;6.03;;;2.20;;
64052;SDS011;50299;49.524;8.536;2023-11-21T12:03:19;3.08;;;2.65;;
64052;SDS011;50299;49.524;8.536;2023-11-21T12:05:48;2.13;;;1.67;;
64052;SDS011;50299;49.524;8.536;2023-11-21T12:08:19;2.45;;;2.05;;
64052;SDS011;50299;49.524;8.536;2023-11-21T12:10:49;2.28;;;2.00;;
64052;SDS011;50299;49.524;8.536;2023-11-21T12:13:16;2.22;;;1.92;;
64052;SDS011;50299;49.524;8.536;2023-11-21T12:15:49;2.30;;;2.10;;
64052;SDS011;50299;49.524;8.536;2023-11-21T12:18:16;2.15;;;1.90;;
64052;SDS011;50299;49.524;8.536;2023-11-21T12:20:57;2.53;;;2.00;;
64052;SDS011;50299;49.524;8.536;2023-11-21T12:23:27;2.45;;;1.63;;
64052;SDS011;50299;49.524;8.536;2023-11-21T12:26:01;1.50;;;1.40;;
64052;SDS011;50299;49.524;8.536;2023-11-21T12:28:32;2.15;;;1.58;;
64052;SDS011;50299;49.524;8.536;2023-11-21T12:31:04;2.03;;;1.83;;
64052;SDS011;50299;49.524;8.536;2023-11-21T12:33:47;1.65;;;1.55;;
64052;SDS011;50299;49.524;8.536;2023-11-21T12:36:13;3.60;;;1.65;;
64052;SDS011;50299;49.524;8.536;2023-11-21T12:38:41;1.48;;;1.38;;
64052;SDS011;50299;49.524;8.536;2023-11-21T12:41:11;2.22;;;1.45;;
64052;SDS011;50299;49.524;8.536;2023-11-21T12:43:38;1.90;;;1.52;;
64052;SDS011;50299;49.524;8.536;2023-11-21T12:46:07;1.42;;;1.33;;
64052;SDS011;50299;49.524;8.536;2023-11-21T12:48:44;2.97;;;1.70;;
64052;SDS011;50299;49.524;8.536;2023-11-21T12:51:15;1.50;;;1.40;;
64052;SDS011;50299;49.524;8.536;2023-11-21T12:53:48;2.25;;;1.15;;
64052;SDS011;50299;49.524;8.536;2023-11-21T12:56:25;1.42;;;1.33;;
64052;SDS011;50299;49.524;8.536;2023-11-21T12:58:58;1.85;;;1.35;;
64052;SDS011;50299;49.524;8.536;2023-11-21T13:01:27;3.15;;;1.83;;
64052;SDS011;50299;49.524;8.536;2023-11-21T13:03:58;1.08;;;1.08;;
64052;SDS011;50299;49.524;8.536;2023-11-21T13:09:00;1.83;;;1.38;;
64052;SDS011;50299;49.524;8.536;2023-11-21T13:11:34;1.55;;;1.45;;
64052;SDS011;50299;49.524;8.536;2023-11-21T13:14:10;2.70;;;1.65;;
64052;SDS011;50299;49.524;8.536;2023-11-21T13:16:41;2.40;;;2.20;;
64052;SDS011;50299;49.524;8.536;2023-11-21T13:19:12;1.58;;;1.48;;
64052;SDS011;50299;49.524;8.536;2023-11-21T13:21:43;1.92;;;1.60;;
64052;SDS011;50299;49.524;8.536;2023-11-21T13:24:10;3.83;;;1.67;;
64052;SDS011;50299;49.524;8.536;2023-11-21T13:26:42;2.00;;;1.58;;
64052;SDS011;50299;49.524;8.536;2023-11-21T13:29:12;1.58;;;1.48;;
64052;SDS011;50299;49.524;8.536;2023-11-21T13:31:43;1.60;;;1.50;;
64052;SDS011;50299;49.524;8.536;2023-11-21T13:34:09;1.58;;;0.90;;
64052;SDS011;50299;49.524;8.536;2023-11-21T13:36:46;1.50;;;1.40;;
64052;SDS011;50299;49.524;8.536;2023-11-21T13:39:16;3.50;;;1.58;;
64052;SDS011;50299;49.524;8.536;2023-11-21T13:41:45;1.30;;;1.20;;
64052;SDS011;50299;49.524;8.536;2023-11-21T13:44:17;2.10;;;1.17;;
64052;SDS011;50299;49.524;8.536;2023-11-21T13:47:07;1.83;;;1.60;;
64052;SDS011;50299;49.524;8.536;2023-11-21T13:52:20;1.83;;;1.38;;
64052;SDS011;50299;49.524;8.536;2023-11-21T13:54:57;2.47;;;1.45;;
64052;SDS011;50299;49.524;8.536;2023-11-21T13:57:33;3.13;;;1.70;;
64052;SDS011;50299;49.524;8.536;2023-11-21T14:00:02;1.50;;;1.40;;
64052;SDS011;50299;49.524;8.536;2023-11-21T14:02:40;1.23;;;1.10;;
64052;SDS011;50299;49.524;8.536;2023-11-21T14:05:11;1.20;;;1.15;;
64052;SDS011;50299;49.524;8.536;2023-11-21T14:07:40;1.45;;;1.35;;
64052;SDS011;50299;49.524;8.536;2023-11-21T14:10:13;0.90;;;0.90;;
64052;SDS011;50299;49.524;8.536;2023-11-21T14:12:42;2.10;;;1.20;;
64052;SDS011;50299;49.524;8.536;2023-11-21T14:15:13;1.27;;;1.17;;
64052;SDS011;50299;49.524;8.536;2023-11-21T14:17:46;1.55;;;1.00;;
64052;SDS011;50299;49.524;8.536;2023-11-21T14:20:15;1.55;;;1.27;;
64052;SDS011;50299;49.524;8.536;2023-11-21T14:22:48;1.17;;;1.00;;
64052;SDS011;50299;49.524;8.536;2023-11-21T14:25:23;1.10;;;1.10;;
64052;SDS011;50299;49.524;8.536;2023-11-21T14:27:51;1.27;;;1.17;;
64052;SDS011;50299;49.524;8.536;2023-11-21T14:30:19;1.55;;;1.15;;
64052;SDS011;50299;49.524;8.536;2023-11-21T14:32:48;3.42;;;1.33;;
64052;SDS011;50299;49.524;8.536;2023-11-21T14:35:20;2.45;;;1.27;;
64052;SDS011;50299;49.524;8.536;2023-11-21T14:40:14;2.13;;;1.92;;
64052;SDS011;50299;49.524;8.536;2023-11-21T14:42:42;3.28;;;1.33;;
64052;SDS011;50299;49.524;8.536;2023-11-21T14:45:13;6.38;;;1.98;;
64052;SDS011;50299;49.524;8.536;2023-11-21T14:47:56;1.63;;;1.52;;
64052;SDS011;50299;49.524;8.536;2023-11-21T14:50:42;1.92;;;1.60;;
64052;SDS011;50299;49.524;8.536;2023-11-21T14:53:09;2.55;;;1.65;;
64052;SDS011;50299;49.524;8.536;2023-11-21T14:55:40;1.63;;;1.52;;
64052;SDS011;50299;49.524;8.536;2023-11-21T14:58:16;1.30;;;1.20;;
64052;SDS011;50299;49.524;8.536;2023-11-21T15:00:55;2.45;;;1.67;;
64052;SDS011;50299;49.524;8.536;2023-11-21T15:03:28;1.60;;;1.50;;
64052;SDS011;50299;49.524;8.536;2023-11-21T15:05:58;2.67;;;1.40;;
64052;SDS011;50299;49.524;8.536;2023-11-21T15:08:26;1.77;;;1.52;;
64052;SDS011;50299;49.524;8.536;2023-11-21T15:11:03;2.50;;;1.50;;
64052;SDS011;50299;49.524;8.536;2023-11-21T15:13:33;1.70;;;1.60;;
64052;SDS011;50299;49.524;8.536;2023-11-21T15:18:34;2.42;;;1.58;;
64052;SDS011;50299;49.524;8.536;2023-11-21T15:21:02;1.77;;;1.38;;
64052;SDS011;50299;49.524;8.536;2023-11-21T15:23:32;4.43;;;1.50;;
64052;SDS011;50299;49.524;8.536;2023-11-21T15:28:34;1.58;;;1.10;;
64052;SDS011;50299;49.524;8.536;2023-11-21T15:31:01;1.63;;;1.52;;
64052;SDS011;50299;49.524;8.536;2023-11-21T15:33:35;1.67;;;1.58;;
64052;SDS011;50299;49.524;8.536;2023-11-21T15:36:15;1.95;;;1.65;;
64052;SDS011;50299;49.524;8.536;2023-11-21T15:38:44;2.20;;;1.80;;
64052;SDS011;50299;49.524;8.536;2023-11-21T15:41:10;1.83;;;1.58;;